Time;durP1;ratioP1;P1;durP2;ratioP2;P2;SDS_P1;SDS_P2;PMS_P1;PMS_P2;Temp;Humidity;BMP_temperature;BMP_pressure;BME280_temperature;BME280_humidity;BME280_pressure;Samples;Min_cycle;Max_cycle;Signal;HPM_P1;HPM_P2
2021/10/30 00:00:52;;;;;;;3.17;1.33;;;12.70;75.20;;;;;;4986515;28;20030;-78
2021/10/30 00:03:19;;;;;;;3.90;1.40;;;12.70;75.20;;;;;;4986896;28;20066;-77
2021/10/30 00:05:46;;;;;;;3.03;1.17;;;12.70;75.20;;;;;;4986294;28;20058;-77
2021/10/30 00:08:12;;;;;;;3.42;1.60;;;12.70;75.20;;;;;;5001801;28;20040;-77
2021/10/30 00:10:38;;;;;;;4.25;1.10;;;12.70;75.20;;;;;;4986981;28;20034;-78
2021/10/30 00:13:04;;;;;;;4.70;1.52;;;12.70;75.20;;;;;;4986505;28;20041;-78
2021/10/30 00:15:30;;;;;;;6.28;2.50;;;12.80;75.30;;;;;;4987368;28;20062;-78
2021/10/30 00:17:57;;;;;;;6.15;1.58;;;12.80;75.30;;;;;;4986568;28;20034;-78
2021/10/30 00:20:23;;;;;;;3.78;1.17;;;12.70;75.20;;;;;;4985127;28;20038;-77
2021/10/30 00:22:50;;;;;;;7.00;2.22;;;12.80;75.40;;;;;;4987178;28;20432;-77
2021/10/30 00:25:16;;;;;;;7.65;1.60;;;12.80;75.90;;;;;;4986414;28;20048;-77
2021/10/30 00:27:43;;;;;;;2.65;1.55;;;12.70;75.20;;;;;;4987019;28;20164;-78
2021/10/30 00:30:09;;;;;;;6.28;1.50;;;12.80;75.40;;;;;;4986549;28;20042;-78
2021/10/30 00:32:36;;;;;;;8.18;1.60;;;12.80;75.40;;;;;;4986884;28;20090;-78
2021/10/30 00:35:03;;;;;;;6.15;1.75;;;12.80;75.30;;;;;;4967602;28;20570;-78
2021/10/30 00:37:29;;;;;;;3.03;1.25;;;12.80;75.40;;;;;;4967419;28;20039;-78
2021/10/30 00:39:55;;;;;;;5.68;1.52;;;12.80;75.40;;;;;;4982098;28;20038;-78
2021/10/30 00:42:21;;;;;;;3.65;1.15;;;12.80;75.30;;;;;;4986719;28;20039;-78
2021/10/30 00:44:47;;;;;;;3.80;1.45;;;12.80;75.30;;;;;;4984922;28;20033;-77
2021/10/30 00:47:14;;;;;;;8.77;1.60;;;12.80;75.30;;;;;;4986613;28;20077;-77
2021/10/30 00:49:42;;;;;;;8.65;1.63;;;12.80;75.30;;;;;;4986395;28;20070;-77
2021/10/30 00:52:09;;;;;;;4.07;1.48;;;12.80;75.30;;;;;;4986272;28;20490;-78
2021/10/30 00:54:37;;;;;;;6.63;2.25;;;12.80;75.30;;;;;;4986096;28;20040;-77
2021/10/30 00:57:05;;;;;;;4.90;1.27;;;12.80;75.30;;;;;;4986590;28;20077;-77
2021/10/30 00:59:31;;;;;;;5.93;1.45;;;12.80;75.20;;;;;;4986102;28;20379;-78
2021/10/30 01:01:58;;;;;;;5.47;1.83;;;12.80;75.30;;;;;;4985593;28;20053;-77
2021/10/30 01:04:24;;;;;;;5.57;1.70;;;12.80;75.20;;;;;;4979991;28;20501;-77
2021/10/30 01:06:52;;;;;;;6.22;1.55;;;12.80;75.20;;;;;;4986279;28;20084;-77
2021/10/30 01:09:20;;;;;;;4.45;1.48;;;12.80;75.20;;;;;;4986192;28;20069;-77
2021/10/30 01:11:47;;;;;;;6.30;1.27;;;12.80;75.20;;;;;;4986137;28;20081;-77
2021/10/30 01:14:14;;;;;;;5.60;1.88;;;12.80;75.20;;;;;;4989524;28;20486;-77
2021/10/30 01:16:40;;;;;;;4.20;1.77;;;12.80;75.20;;;;;;4990208;28;20030;-78
2021/10/30 01:19:06;;;;;;;8.65;1.48;;;12.80;75.20;;;;;;4989693;28;20033;-78
2021/10/30 01:21:36;;;;;;;6.13;1.50;;;12.80;75.20;;;;;;4989626;28;20038;-77
2021/10/30 01:24:05;;;;;;;6.38;2.10;;;12.80;75.20;;;;;;4989974;28;20478;-77
2021/10/30 01:26:31;;;;;;;2.58;1.45;;;12.80;75.30;;;;;;4990002;28;20508;-78
2021/10/30 01:28:59;;;;;;;4.85;1.85;;;12.80;75.20;;;;;;4988250;28;20558;-78
2021/10/30 01:31:25;;;;;;;6.22;1.25;;;12.90;75.40;;;;;;4997063;28;20185;-77
2021/10/30 01:33:52;;;;;;;4.60;1.25;;;12.80;75.20;;;;;;4995145;28;20041;-77
2021/10/30 01:36:20;;;;;;;6.25;1.40;;;12.80;75.20;;;;;;5006241;28;20038;-78
2021/10/30 01:38:47;;;;;;;3.60;1.25;;;12.80;75.20;;;;;;4991286;28;20116;-78
2021/10/30 01:41:13;;;;;;;6.07;1.45;;;12.90;75.90;;;;;;4990989;28;20078;-78
2021/10/30 01:43:39;;;;;;;5.53;2.55;;;12.80;75.20;;;;;;4989702;28;20100;-79
2021/10/30 01:46:06;;;;;;;4.05;2.00;;;12.80;75.20;;;;;;4992935;28;20076;-77
2021/10/30 01:48:37;;;;;;;4.82;1.40;;;12.80;75.10;;;;;;5003991;28;20181;-79
2021/10/30 01:51:05;;;;;;;4.32;1.45;;;12.80;75.10;;;;;;5003025;28;20049;-80
2021/10/30 01:53:32;;;;;;;7.47;1.30;;;12.80;75.20;;;;;;5013579;28;20037;-78
2021/10/30 01:55:58;;;;;;;5.43;1.13;;;12.80;75.20;;;;;;5013770;28;20535;-78
2021/10/30 01:58:24;;;;;;;3.53;1.40;;;12.80;75.10;;;;;;5013156;28;20478;-78
2021/10/30 02:00:52;;;;;;;5.88;2.45;;;12.80;75.20;;;;;;5013556;28;20030;-78
2021/10/30 02:03:18;;;;;;;3.05;1.00;;;12.80;75.20;;;;;;5012064;28;20393;-78
2021/10/30 02:05:44;;;;;;;5.18;1.23;;;12.80;75.20;;;;;;5013476;28;20026;-78
2021/10/30 02:08:10;;;;;;;8.32;2.38;;;12.80;75.20;;;;;;5013288;28;20042;-78
2021/10/30 02:10:36;;;;;;;6.95;1.60;;;12.90;75.40;;;;;;5012350;28;20034;-78
2021/10/30 02:13:02;;;;;;;5.63;1.75;;;12.90;75.50;;;;;;5012359;28;20034;-78
2021/10/30 02:15:28;;;;;;;5.68;1.33;;;12.80;75.30;;;;;;5012395;28;20385;-78
2021/10/30 02:17:54;;;;;;;8.73;1.60;;;12.90;75.50;;;;;;4997059;28;20045;-78
2021/10/30 02:20:22;;;;;;;6.13;2.15;;;12.90;75.50;;;;;;4992445;28;20109;-78
2021/10/30 02:22:52;;;;;;;5.43;1.75;;;12.80;75.30;;;;;;4991768;28;20271;-78
2021/10/30 02:25:21;;;;;;;5.38;1.33;;;12.90;75.50;;;;;;4993527;28;20033;-79
2021/10/30 02:27:47;;;;;;;4.75;1.48;;;12.90;75.50;;;;;;4993821;28;20038;-79
2021/10/30 02:30:14;;;;;;;4.00;1.42;;;12.90;75.50;;;;;;5002872;28;20041;-78
2021/10/30 02:32:41;;;;;;;5.50;1.48;;;12.90;75.60;;;;;;4999186;28;20418;-79
2021/10/30 02:35:08;;;;;;;7.28;1.60;;;12.90;75.60;;;;;;4978389;28;20030;-80
2021/10/30 02:37:34;;;;;;;3.67;1.70;;;12.90;75.60;;;;;;4985519;28;20058;-79
2021/10/30 02:40:00;;;;;;;4.25;1.27;;;12.90;75.60;;;;;;4997549;28;20026;-79
2021/10/30 02:42:26;;;;;;;3.67;1.90;;;12.90;75.60;;;;;;5007101;28;20498;-78
2021/10/30 02:44:52;;;;;;;7.72;1.23;;;12.90;75.60;;;;;;4993113;28;20441;-79
2021/10/30 02:47:18;;;;;;;4.90;1.73;;;12.90;75.60;;;;;;5001085;28;20045;-79
2021/10/30 02:49:44;;;;;;;8.88;1.60;;;12.90;75.60;;;;;;4992928;28;20050;-78
2021/10/30 02:52:10;;;;;;;3.20;1.75;;;12.90;75.60;;;;;;4992960;28;20034;-79
2021/10/30 02:54:36;;;;;;;9.18;1.83;;;12.90;75.60;;;;;;4991815;28;20117;-78
2021/10/30 02:57:02;;;;;;;5.93;1.77;;;12.90;75.60;;;;;;4992717;28;20033;-78
2021/10/30 02:59:28;;;;;;;8.55;3.13;;;13.00;75.80;;;;;;4992856;28;20551;-81
2021/10/30 03:01:54;;;;;;;4.25;1.45;;;13.00;75.80;;;;;;4993117;28;20030;-80
2021/10/30 03:04:20;;;;;;;4.22;1.55;;;13.00;75.80;;;;;;4991258;28;20038;-80
2021/10/30 03:06:46;;;;;;;5.25;2.20;;;13.00;75.80;;;;;;4992435;28;20039;-80
2021/10/30 03:09:12;;;;;;;5.10;1.50;;;13.00;75.80;;;;;;4992941;28;20368;-80
2021/10/30 03:11:39;;;;;;;6.50;2.28;;;12.90;75.60;;;;;;4992677;28;20066;-79
2021/10/30 03:14:05;;;;;;;8.07;2.03;;;13.00;75.80;;;;;;4992579;28;20037;-79
2021/10/30 03:16:31;;;;;;;8.40;1.70;;;13.00;75.80;;;;;;4992234;28;20030;-80
2021/10/30 03:18:57;;;;;;;5.32;2.08;;;13.00;75.80;;;;;;4992046;28;20333;-78
2021/10/30 03:21:23;;;;;;;4.93;1.80;;;13.00;75.80;;;;;;5007719;28;20034;-79
2021/10/30 03:23:50;;;;;;;3.65;1.38;;;13.00;75.80;;;;;;4992395;28;20037;-80
2021/10/30 03:26:16;;;;;;;7.05;1.38;;;13.00;75.80;;;;;;4991956;28;20027;-80
2021/10/30 03:28:42;;;;;;;4.25;1.10;;;12.90;75.70;;;;;;5007609;28;20074;-80
2021/10/30 03:31:08;;;;;;;4.55;1.85;;;13.00;76.40;;;;;;4993062;28;20129;-80
2021/10/30 03:33:34;;;;;;;5.32;1.10;;;12.90;75.70;;;;;;5007260;28;20026;-81
2021/10/30 03:36:00;;;;;;;3.92;1.55;;;13.00;75.90;;;;;;5011809;28;20040;-80
2021/10/30 03:38:26;;;;;;;12.52;1.70;;;13.00;75.90;;;;;;4996882;28;20045;-80
2021/10/30 03:40:53;;;;;;;6.18;2.05;;;12.90;75.80;;;;;;4992123;28;20030;-79
2021/10/30 03:43:19;;;;;;;6.13;2.45;;;13.00;76.00;;;;;;5006894;28;20038;-79
2021/10/30 03:45:45;;;;;;;4.53;1.55;;;12.90;75.80;;;;;;4992399;28;20327;-79
2021/10/30 03:48:11;;;;;;;6.53;3.08;;;13.00;76.00;;;;;;4988750;28;20100;-79
2021/10/30 03:50:37;;;;;;;3.22;1.23;;;13.00;76.00;;;;;;4991914;28;20031;-79
2021/10/30 03:53:06;;;;;;;4.72;1.08;;;13.00;76.00;;;;;;4991708;28;20117;-80
2021/10/30 03:55:33;;;;;;;5.18;1.25;;;13.00;76.10;;;;;;4991737;28;20437;-79
2021/10/30 03:58:01;;;;;;;3.63;1.48;;;12.90;75.90;;;;;;4991930;28;20106;-80
2021/10/30 04:00:27;;;;;;;4.07;1.25;;;12.90;75.90;;;;;;4991519;28;20556;-80
2021/10/30 04:02:54;;;;;;;4.40;1.17;;;12.90;75.90;;;;;;4991722;28;20104;-80
2021/10/30 04:05:20;;;;;;;5.88;0.90;;;12.90;75.90;;;;;;5006973;28;20475;-78
2021/10/30 04:07:46;;;;;;;7.03;1.65;;;12.90;75.90;;;;;;4991354;28;20050;-79
2021/10/30 04:10:12;;;;;;;2.60;1.02;;;12.90;75.90;;;;;;4992198;28;20422;-80
2021/10/30 04:12:42;;;;;;;4.10;1.08;;;12.90;76.00;;;;;;4991401;28;20030;-80
2021/10/30 04:15:08;;;;;;;5.53;1.33;;;12.90;76.00;;;;;;4991950;28;20045;-80
2021/10/30 04:17:34;;;;;;;3.92;1.83;;;12.90;76.00;;;;;;4991626;28;20379;-79
2021/10/30 04:20:00;;;;;;;5.00;1.30;;;12.90;76.00;;;;;;4991097;28;20048;-80
2021/10/30 04:22:26;;;;;;;4.85;1.45;;;12.90;76.00;;;;;;4990033;28;20030;-77
2021/10/30 04:24:53;;;;;;;3.85;1.02;;;12.90;76.00;;;;;;4991537;28;20512;-79
2021/10/30 04:27:19;;;;;;;2.58;0.80;;;12.80;75.90;;;;;;4991642;28;20120;-80
2021/10/30 04:29:45;;;;;;;5.85;1.45;;;12.80;75.90;;;;;;4991577;28;20540;-81
2021/10/30 04:32:13;;;;;;;4.55;1.45;;;12.80;75.90;;;;;;4990275;28;20039;-80
2021/10/30 04:34:47;;;;;;;3.65;1.20;;;12.80;76.00;;;;;;4990067;28;20027;-79
2021/10/30 04:37:17;;;;;;;2.22;1.10;;;12.80;76.00;;;;;;4990157;28;20038;-80
2021/10/30 04:39:43;;;;;;;3.65;0.90;;;12.80;76.00;;;;;;4991526;28;20732;-80
2021/10/30 04:42:08;;;;;;;3.40;2.10;;;12.70;75.90;;;;;;4991255;28;20061;-80
2021/10/30 04:44:35;;;;;;;2.90;0.65;;;12.80;76.10;;;;;;4991565;28;20029;-81
2021/10/30 04:47:01;;;;;;;2.05;0.90;;;12.80;76.10;;;;;;4991817;28;20629;-77
2021/10/30 04:49:27;;;;;;;3.05;0.93;;;12.70;76.00;;;;;;4991843;28;20054;-79
2021/10/30 04:51:53;;;;;;;2.60;1.17;;;12.80;76.10;;;;;;4990460;28;20125;-81
2021/10/30 04:54:19;;;;;;;3.00;1.02;;;12.70;76.00;;;;;;4991586;28;20995;-82
2021/10/30 04:56:45;;;;;;;3.05;0.90;;;12.80;76.20;;;;;;4992014;28;20038;-81
2021/10/30 04:59:11;;;;;;;2.33;1.00;;;12.70;76.00;;;;;;4991591;28;20057;-81
2021/10/30 05:01:37;;;;;;;2.85;0.90;;;12.70;76.00;;;;;;4990933;28;20034;-81
2021/10/30 05:04:03;;;;;;;6.63;2.88;;;12.70;76.00;;;;;;4989715;28;20138;-80
2021/10/30 05:06:29;;;;;;;3.35;0.80;;;12.70;76.00;;;;;;4990559;28;20030;-82
2021/10/30 05:08:55;;;;;;;2.75;0.90;;;12.70;76.00;;;;;;4990306;28;20036;-82
2021/10/30 05:11:21;;;;;;;3.03;0.70;;;12.70;76.10;;;;;;4990207;28;20022;-80
2021/10/30 05:13:47;;;;;;;2.75;0.95;;;12.70;76.10;;;;;;5005731;28;20038;-81
2021/10/30 05:16:13;;;;;;;2.35;0.75;;;12.70;76.10;;;;;;5007159;28;20042;-81
2021/10/30 05:18:39;;;;;;;3.25;1.17;;;12.70;76.10;;;;;;4990306;28;20084;-79
2021/10/30 05:21:05;;;;;;;3.08;0.93;;;12.70;76.10;;;;;;4989996;28;20043;-81
2021/10/30 05:23:37;;;;;;;2.72;0.80;;;12.70;76.10;;;;;;4988326;28;20031;-79
2021/10/30 05:26:03;;;;;;;1.40;0.65;;;12.70;76.10;;;;;;4990299;28;20240;-81
2021/10/30 05:28:29;;;;;;;3.13;0.90;;;12.70;76.20;;;;;;4988417;28;20101;-80
2021/10/30 05:30:55;;;;;;;2.55;0.90;;;12.70;76.20;;;;;;4990389;28;20038;-80
2021/10/30 05:33:21;;;;;;;3.67;0.60;;;12.70;76.20;;;;;;4988146;28;20397;-81
2021/10/30 05:36:27;;;;;;;4.20;0.68;;;12.70;76.20;;;;;;4967860;28;20126;-81
2021/10/30 05:39:14;;;;;;;3.20;0.70;;;12.70;76.20;;;;;;4953014;28;20150;-82
2021/10/30 05:41:40;;;;;;;2.80;0.70;;;12.70;76.20;;;;;;4981416;28;20034;-83
2021/10/30 05:44:06;;;;;;;1.63;0.50;;;12.70;76.20;;;;;;5002143;28;20573;-83
2021/10/30 05:46:32;;;;;;;1.10;0.73;;;12.70;76.20;;;;;;4994389;28;20313;-79
2021/10/30 05:49:01;;;;;;;1.92;0.60;;;12.70;76.30;;;;;;4989525;28;20050;-83
2021/10/30 05:51:27;;;;;;;3.42;0.80;;;12.60;76.10;;;;;;4995267;28;20031;-81
2021/10/30 05:53:53;;;;;;;4.57;0.80;;;12.70;76.30;;;;;;4992355;28;20495;-81
2021/10/30 05:56:19;;;;;;;2.08;0.98;;;12.70;76.30;;;;;;4988001;28;20429;-80
2021/10/30 05:58:45;;;;;;;0.82;0.50;;;12.70;76.30;;;;;;4987825;28;20031;-83
2021/10/30 06:01:11;;;;;;;1.48;0.50;;;12.60;76.20;;;;;;4987532;28;20050;-80
2021/10/30 06:03:37;;;;;;;2.00;0.52;;;12.60;76.20;;;;;;5003386;28;20064;-80
2021/10/30 06:06:03;;;;;;;3.25;0.60;;;12.70;76.40;;;;;;5004450;28;20046;-79
2021/10/30 06:08:29;;;;;;;2.28;0.77;;;12.60;76.20;;;;;;4992184;28;20115;-80
2021/10/30 06:10:56;;;;;;;2.30;0.70;;;12.60;76.20;;;;;;5007553;28;20540;-82
2021/10/30 06:13:22;;;;;;;2.20;0.47;;;12.60;76.20;;;;;;4987287;28;20050;-82
2021/10/30 06:15:48;;;;;;;0.85;0.55;;;12.60;76.20;;;;;;5008194;28;20496;-83
2021/10/30 06:18:14;;;;;;;2.08;0.50;;;12.60;76.30;;;;;;4998925;28;20026;-87
2021/10/30 06:20:40;;;;;;;2.47;0.85;;;12.60;76.30;;;;;;5010053;28;20084;-89
2021/10/30 06:23:07;;;;;;;1.13;0.52;;;12.60;76.30;;;;;;4999112;28;20030;-86
2021/10/30 06:25:33;;;;;;;2.33;0.50;;;12.60;76.30;;;;;;4989326;28;20105;-83
2021/10/30 06:27:59;;;;;;;1.45;0.65;;;12.60;76.30;;;;;;4988700;28;20454;-83
2021/10/30 06:30:25;;;;;;;0.75;0.50;;;12.60;76.40;;;;;;4987453;28;20121;-79
2021/10/30 06:32:52;;;;;;;1.90;0.60;;;12.60;76.40;;;;;;4987850;28;20459;-84
2021/10/30 06:35:18;;;;;;;2.40;0.60;;;12.60;76.40;;;;;;4988006;28;20104;-86
2021/10/30 06:37:44;;;;;;;1.88;0.63;;;12.60;76.40;;;;;;4990783;28;20026;-83
2021/10/30 06:40:13;;;;;;;0.85;0.50;;;12.60;76.40;;;;;;5001697;28;20034;-84
2021/10/30 06:42:39;;;;;;;0.98;0.50;;;12.60;76.40;;;;;;5003428;28;20329;-83
2021/10/30 06:45:06;;;;;;;1.30;0.50;;;12.50;76.30;;;;;;4988434;28;20062;-82
2021/10/30 06:47:32;;;;;;;2.10;0.55;;;12.60;76.50;;;;;;4997591;28;20441;-82
2021/10/30 06:49:59;;;;;;;1.50;0.50;;;12.60;76.50;;;;;;4987459;28;20439;-81
2021/10/30 06:52:36;;;;;;;1.45;0.63;;;12.60;76.50;;;;;;4984168;28;20030;-88
2021/10/30 06:55:07;;;;;;;3.15;0.65;;;12.60;76.50;;;;;;4981328;28;20096;-83
2021/10/30 06:57:33;;;;;;;1.75;0.60;;;12.60;76.50;;;;;;5005964;28;20126;-80
2021/10/30 07:00:00;;;;;;;1.38;0.88;;;12.60;76.60;;;;;;5008048;28;20029;-79
2021/10/30 07:02:27;;;;;;;0.82;0.50;;;12.50;76.40;;;;;;5004866;28;20026;-89
2021/10/30 07:04:54;;;;;;;2.97;0.75;;;12.60;76.60;;;;;;4989185;28;20125;-83
2021/10/30 07:07:20;;;;;;;2.45;0.50;;;12.50;76.40;;;;;;4996704;28;20042;-84
2021/10/30 07:09:46;;;;;;;2.15;0.88;;;12.50;76.40;;;;;;4987653;28;20057;-85
2021/10/30 07:12:14;;;;;;;0.77;0.50;;;12.50;76.40;;;;;;5000291;28;20034;-88
2021/10/30 07:14:40;;;;;;;1.70;0.60;;;12.60;76.60;;;;;;4989572;28;20741;-79
2021/10/30 07:17:06;;;;;;;1.38;0.55;;;12.50;76.40;;;;;;4988210;28;20109;-86
2021/10/30 07:19:33;;;;;;;0.77;0.73;;;12.50;76.40;;;;;;4987687;28;20516;-87
2021/10/30 07:21:59;;;;;;;1.25;0.70;;;12.50;76.40;;;;;;4988701;28;20077;-79
2021/10/30 07:24:25;;;;;;;2.80;0.60;;;12.50;76.40;;;;;;4997897;28;20133;-77
2021/10/30 07:26:51;;;;;;;1.42;0.70;;;12.50;76.40;;;;;;5006584;28;20128;-77
2021/10/30 07:29:17;;;;;;;0.73;0.30;;;12.50;76.40;;;;;;4990897;28;20133;-79
2021/10/30 07:31:43;;;;;;;1.33;0.40;;;12.50;76.40;;;;;;5002622;28;20045;-80
2021/10/30 07:34:09;;;;;;;1.88;0.50;;;12.50;76.40;;;;;;5006813;28;20037;-80
2021/10/30 07:36:41;;;;;;;1.00;0.50;;;12.50;76.40;;;;;;5000823;28;20074;-82
2021/10/30 07:39:10;;;;;;;1.02;0.30;;;12.60;76.70;;;;;;5007835;28;20049;-85
2021/10/30 07:41:36;;;;;;;2.33;0.60;;;12.50;76.50;;;;;;4991806;28;20046;-79
2021/10/30 07:44:03;;;;;;;0.98;0.50;;;12.60;76.70;;;;;;4997887;28;20481;-81
2021/10/30 07:46:30;;;;;;;0.68;0.47;;;12.50;76.50;;;;;;4991132;28;20101;-87
2021/10/30 07:48:56;;;;;;;6.82;1.25;;;12.60;76.70;;;;;;4974570;28;20082;-86
2021/10/30 07:51:23;;;;;;;2.97;2.22;;;12.70;76.90;;;;;;4996743;28;20038;-81
2021/10/30 07:53:49;;;;;;;3.10;1.65;;;12.70;77.20;;;;;;5007879;28;20038;-85
2021/10/30 07:56:16;;;;;;;2.20;1.20;;;12.70;77.40;;;;;;4997467;28;20835;-84
2021/10/30 07:58:43;;;;;;;1.20;0.90;;;12.70;77.50;;;;;;5002290;28;20026;-82
2021/10/30 08:01:09;;;;;;;1.48;0.90;;;12.80;77.70;;;;;;5006682;28;20104;-79
2021/10/30 08:03:35;;;;;;;2.67;1.10;;;12.80;77.60;;;;;;5021682;28;20492;-82
2021/10/30 08:06:02;;;;;;;2.05;0.90;;;12.80;77.60;;;;;;5022278;28;20030;-84
2021/10/30 08:08:29;;;;;;;2.80;1.02;;;12.80;77.60;;;;;;4996274;28;20399;-83
2021/10/30 08:10:55;;;;;;;1.80;0.77;;;12.80;77.60;;;;;;5000003;28;20033;-80
2021/10/30 08:13:22;;;;;;;2.33;0.70;;;12.80;77.60;;;;;;4994556;28;20547;-77
2021/10/30 08:15:48;;;;;;;1.55;0.60;;;12.80;77.60;;;;;;4985940;28;20030;-79
2021/10/30 08:18:14;;;;;;;2.58;0.60;;;12.80;77.60;;;;;;4993315;28;20265;-81
2021/10/30 08:20:40;;;;;;;1.63;0.73;;;12.80;77.60;;;;;;5006635;28;20061;-80
2021/10/30 08:23:06;;;;;;;1.58;0.80;;;12.90;77.70;;;;;;4980524;28;20033;-79
2021/10/30 08:25:36;;;;;;;1.27;0.75;;;12.80;77.50;;;;;;4986777;28;20056;-79
2021/10/30 08:28:07;;;;;;;1.15;1.08;;;12.90;77.60;;;;;;5014825;28;20106;-79
2021/10/30 08:30:34;;;;;;;1.67;0.70;;;12.90;77.60;;;;;;4987611;28;20026;-79
2021/10/30 08:33:00;;;;;;;1.10;0.60;;;12.90;77.50;;;;;;4987458;28;20445;-80
2021/10/30 08:35:26;;;;;;;2.75;0.70;;;13.00;77.70;;;;;;4987098;28;20026;-79
2021/10/30 08:37:52;;;;;;;1.67;0.80;;;13.00;77.60;;;;;;4987456;28;20038;-79
2021/10/30 08:40:18;;;;;;;1.85;0.60;;;12.90;77.40;;;;;;4986391;28;20321;-79
2021/10/30 08:42:47;;;;;;;1.25;0.68;;;13.00;77.50;;;;;;4984451;28;20030;-80
2021/10/30 08:45:14;;;;;;;1.80;0.80;;;13.00;77.50;;;;;;4985049;28;20434;-79
2021/10/30 08:47:45;;;;;;;0.68;0.50;;;13.00;77.40;;;;;;4984385;28;20804;-77
2021/10/30 08:50:12;;;;;;;1.40;0.95;;;12.90;77.20;;;;;;4985592;28;20457;-78
2021/10/30 08:52:38;;;;;;;1.55;1.40;;;12.90;77.20;;;;;;4986048;28;20285;-79
2021/10/30 08:55:06;;;;;;;0.63;0.60;;;12.90;77.20;;;;;;5012525;28;20049;-79
2021/10/30 08:57:33;;;;;;;1.48;0.60;;;12.90;77.20;;;;;;5004962;28;20524;-79
2021/10/30 09:00:25;;;;;;;2.17;0.52;;;12.90;77.20;;;;;;4986864;28;20038;-78
2021/10/30 09:03:01;;;;;;;1.65;0.70;;;12.80;77.60;;;;;;5001914;28;20113;-78
2021/10/30 09:05:28;;;;;;;0.60;0.60;;;12.90;77.30;;;;;;4987259;28;20038;-78
2021/10/30 09:07:58;;;;;;;1.55;0.60;;;12.90;77.30;;;;;;4986267;28;20046;-79
2021/10/30 09:10:29;;;;;;;1.58;0.60;;;12.90;77.30;;;;;;4987425;28;20061;-79
2021/10/30 09:12:58;;;;;;;2.55;0.50;;;12.90;77.30;;;;;;4986735;28;21072;-79
2021/10/30 09:15:45;;;;;;;0.30;0.30;;;13.00;77.50;;;;;;4986923;28;20102;-79
2021/10/30 09:18:36;;;;;;;2.15;0.90;;;13.10;77.70;;;;;;4985588;28;20509;-76
2021/10/30 09:21:12;;;;;;;0.75;0.60;;;13.20;77.80;;;;;;4985772;28;20038;-80
2021/10/30 09:23:40;;;;;;;2.47;0.80;;;13.30;77.80;;;;;;4986599;28;20034;-79
2021/10/30 09:26:16;;;;;;;0.57;0.35;;;13.40;77.80;;;;;;4986242;28;20113;-81
2021/10/30 09:28:54;;;;;;;4.00;0.80;;;13.50;77.80;;;;;;4986228;28;20154;-77
2021/10/30 09:31:27;;;;;;;0.63;0.30;;;13.60;77.80;;;;;;4986439;28;20525;-80
2021/10/30 09:34:00;;;;;;;0.88;0.50;;;13.60;77.70;;;;;;4989319;28;20637;-80
2021/10/30 09:36:41;;;;;;;0.85;0.50;;;13.70;77.80;;;;;;5005174;28;20121;-81
2021/10/30 09:39:17;;;;;;;2.17;0.57;;;13.70;77.70;;;;;;4990616;28;20074;-83
2021/10/30 09:41:45;;;;;;;0.77;0.40;;;13.80;77.80;;;;;;4990099;28;20037;-86
2021/10/30 09:44:17;;;;;;;2.10;0.60;;;13.80;77.70;;;;;;4990626;28;20410;-85
2021/10/30 09:46:43;;;;;;;1.85;0.73;;;13.80;77.60;;;;;;5005170;28;20030;-84
2021/10/30 09:49:16;;;;;;;1.65;0.77;;;13.80;77.50;;;;;;5004247;28;20054;-84
2021/10/30 09:51:43;;;;;;;;;;;13.80;77.50;;;;;;4992585;28;20497;-80
2021/10/30 09:54:09;;;;;;;2.97;0.60;;;13.80;77.50;;;;;;4992710;28;20419;-81
2021/10/30 09:56:43;;;;;;;2.42;0.60;;;13.80;77.50;;;;;;4989448;28;20030;-79
2021/10/30 09:59:14;;;;;;;0.50;0.40;;;13.80;77.50;;;;;;5003938;28;20117;-79
2021/10/30 10:01:43;;;;;;;1.25;0.50;;;13.80;77.40;;;;;;5009264;28;20062;-77
2021/10/30 10:04:12;;;;;;;0.57;0.50;;;13.80;77.30;;;;;;4990496;28;20030;-80
2021/10/30 10:06:41;;;;;;;1.65;0.43;;;13.80;77.20;;;;;;5005226;28;20426;-79
2021/10/30 10:09:07;;;;;;;1.15;0.73;;;13.80;77.10;;;;;;5003721;28;20103;-80
2021/10/30 10:11:34;;;;;;;0.95;0.50;;;13.80;77.10;;;;;;5008408;28;20034;-80
2021/10/30 10:14:01;;;;;;;1.13;0.50;;;13.80;77.00;;;;;;4993175;28;20030;-81
2021/10/30 10:16:27;;;;;;;2.70;0.40;;;13.80;77.00;;;;;;5005218;28;20045;-78
2021/10/30 10:18:55;;;;;;;1.50;0.45;;;13.80;77.00;;;;;;4988525;28;20077;-80
2021/10/30 10:21:23;;;;;;;1.05;0.40;;;13.90;77.30;;;;;;5003236;28;20038;-79
2021/10/30 10:23:49;;;;;;;1.63;1.05;;;13.90;77.20;;;;;;4986299;28;20471;-80
2021/10/30 10:26:16;;;;;;;1.05;0.55;;;14.00;77.30;;;;;;5001537;28;20482;-79
2021/10/30 10:28:43;;;;;;;1.23;0.50;;;14.10;78.00;;;;;;4999168;28;20171;-78
2021/10/30 10:31:13;;;;;;;1.15;0.63;;;14.20;77.50;;;;;;5008933;28;20086;-78
2021/10/30 10:33:40;;;;;;;0.40;0.38;;;14.30;77.50;;;;;;4996163;28;20038;-79
2021/10/30 10:36:37;;;;;;;1.05;0.73;;;14.40;77.50;;;;;;4989612;28;20057;-79
2021/10/30 10:39:03;;;;;;;3.17;0.50;;;14.60;77.50;;;;;;4980612;28;20045;-77
2021/10/30 10:41:38;;;;;;;2.65;0.93;;;14.60;77.30;;;;;;4988817;28;20035;-77
2021/10/30 10:44:22;;;;;;;2.97;1.27;;;14.70;77.50;;;;;;5004929;28;20146;-78
2021/10/30 10:46:53;;;;;;;4.68;2.13;;;14.80;77.90;;;;;;4990860;28;20026;-78
2021/10/30 10:49:31;;;;;;;2.20;1.08;;;14.90;78.00;;;;;;4989240;28;20129;-78
2021/10/30 10:52:27;;;;;;;2.15;1.17;;;15.10;78.40;;;;;;4988710;28;20033;-78
2021/10/30 10:54:53;;;;;;;3.00;1.60;;;15.20;78.60;;;;;;5007854;28;20057;-78
2021/10/30 10:57:22;;;;;;;3.17;1.20;;;15.30;78.60;;;;;;5023377;28;20490;-79
2021/10/30 10:59:58;;;;;;;1.98;1.25;;;15.30;78.50;;;;;;5007382;28;20030;-78
2021/10/30 11:02:51;;;;;;;2.47;1.10;;;15.40;78.70;;;;;;4987394;28;20042;-80
2021/10/30 11:05:23;;;;;;;3.70;1.08;;;15.40;78.60;;;;;;4982268;28;20523;-77
2021/10/30 11:07:49;;;;;;;4.10;1.33;;;15.40;78.60;;;;;;4988487;28;20548;-78
2021/10/30 11:10:33;;;;;;;3.65;1.65;;;15.40;78.60;;;;;;4986326;28;20022;-78
2021/10/30 11:13:01;;;;;;;79.78;71.80;;;15.50;78.70;;;;;;4996039;28;20037;-78
2021/10/30 11:15:43;;;;;;;60.03;54.05;;;15.50;78.70;;;;;;5003085;28;20033;-79
2021/10/30 11:18:19;;;;;;;36.75;33.25;;;15.60;78.70;;;;;;4987369;28;20022;-80
2021/10/30 11:20:50;;;;;;;24.83;22.23;;;15.70;78.70;;;;;;4987865;28;20033;-79
2021/10/30 11:23:28;;;;;;;19.42;17.52;;;15.70;78.50;;;;;;5006292;28;20374;-79
2021/10/30 11:26:07;;;;;;;17.15;15.45;;;15.70;78.40;;;;;;4990736;28;20034;-82
2021/10/30 11:28:34;;;;;;;14.98;13.45;;;15.70;78.20;;;;;;4989715;28;20045;-85
2021/10/30 11:31:11;;;;;;;14.52;11.60;;;15.70;78.20;;;;;;5002898;28;20501;-82
2021/10/30 11:33:39;;;;;;;18.00;16.27;;;15.60;77.90;;;;;;4988910;28;20034;-81
2021/10/30 11:36:08;;;;;;;13.93;12.52;;;15.60;78.00;;;;;;4987651;28;20430;-81
2021/10/30 11:38:36;;;;;;;13.48;12.18;;;15.70;78.20;;;;;;4986749;28;20049;-80
2021/10/30 11:41:06;;;;;;;12.25;10.75;;;15.70;78.00;;;;;;4986575;28;20022;-80
2021/10/30 11:43:34;;;;;;;10.98;9.70;;;15.70;77.80;;;;;;4987525;28;20247;-82
2021/10/30 11:46:12;;;;;;;9.98;8.95;;;15.70;77.70;;;;;;4986726;28;20393;-81
2021/10/30 11:48:38;;;;;;;13.85;10.50;;;15.70;77.60;;;;;;5006514;28;20050;-83
2021/10/30 11:51:06;;;;;;;10.85;8.70;;;15.60;77.40;;;;;;5007483;28;20116;-81
2021/10/30 11:53:33;;;;;;;10.07;7.50;;;15.60;77.40;;;;;;4996211;28;20041;-80
2021/10/30 11:56:05;;;;;;;8.60;7.15;;;15.60;77.30;;;;;;5000821;28;20120;-81
2021/10/30 11:58:35;;;;;;;7.50;6.70;;;15.50;77.10;;;;;;5009426;28;20428;-79
2021/10/30 12:01:34;;;;;;;5.97;5.25;;;15.50;77.10;;;;;;5005009;28;20543;-79
2021/10/30 12:04:06;;;;;;;5.75;5.03;;;15.50;77.10;;;;;;4988846;28;20034;-79
2021/10/30 12:06:53;;;;;;;5.38;4.28;;;15.40;76.90;;;;;;4978860;28;20047;-77
2021/10/30 12:09:35;;;;;;;5.18;4.38;;;15.40;76.80;;;;;;4982669;28;20524;-83
2021/10/30 12:12:08;;;;;;;5.17;4.50;;;15.40;76.80;;;;;;4987823;28;20462;-81
2021/10/30 12:14:40;;;;;;;5.50;4.65;;;15.40;76.70;;;;;;4950631;28;20062;-80
2021/10/30 12:17:12;;;;;;;5.85;4.25;;;15.40;76.60;;;;;;5000523;28;20109;-80
2021/10/30 12:19:44;;;;;;;4.63;4.22;;;15.40;76.60;;;;;;5004481;28;20033;-83
2021/10/30 12:22:11;;;;;;;4.43;3.58;;;15.30;76.30;;;;;;5008351;28;20382;-83
2021/10/30 12:24:39;;;;;;;3.83;3.40;;;15.30;76.40;;;;;;5005902;28;20026;-81
2021/10/30 12:27:07;;;;;;;5.82;3.50;;;15.30;76.40;;;;;;5006950;28;20123;-78
2021/10/30 12:29:41;;;;;;;4.32;3.70;;;15.30;76.40;;;;;;5006801;28;20046;-79
2021/10/30 12:32:13;;;;;;;6.28;3.15;;;15.20;76.20;;;;;;4998354;28;20041;-80
2021/10/30 12:34:42;;;;;;;4.53;3.15;;;15.20;76.20;;;;;;4986931;28;20026;-80
2021/10/30 12:37:13;;;;;;;3.50;2.45;;;15.20;76.20;;;;;;4987363;28;20057;-82
2021/10/30 12:39:55;;;;;;;3.38;2.55;;;15.30;76.40;;;;;;4987732;28;20027;-83
2021/10/30 12:42:21;;;;;;;4.78;2.70;;;15.30;76.30;;;;;;4986724;28;20037;-82
2021/10/30 12:44:50;;;;;;;4.32;2.83;;;15.20;76.20;;;;;;4987188;28;20026;-79
2021/10/30 12:47:17;;;;;;;2.33;2.13;;;15.20;76.20;;;;;;4984874;28;20133;-80
2021/10/30 12:49:43;;;;;;;3.85;1.88;;;15.20;76.20;;;;;;4989130;28;20074;-81
2021/10/30 12:52:14;;;;;;;3.53;1.90;;;15.20;76.20;;;;;;4987869;28;20034;-81